sensor_id;sensor_type;location;lat;lon;timestamp;P1;durP1;ratioP1;P2;durP2;ratioP2
31618;SDS011;18230;51.502;7.108;2023-06-22T00:03:15;9.93;;;5.65;;
31618;SDS011;18230;51.502;7.108;2023-06-22T00:08:18;9.90;;;5.97;;
31618;SDS011;18230;51.502;7.108;2023-06-22T00:13:19;8.45;;;4.68;;
31618;SDS011;18230;51.502;7.108;2023-06-22T00:18:20;10.52;;;5.57;;
31618;SDS011;18230;51.502;7.108;2023-06-22T00:23:21;10.15;;;4.63;;
31618;SDS011;18230;51.502;7.108;2023-06-22T00:28:23;8.32;;;6.22;;
31618;SDS011;18230;51.502;7.108;2023-06-22T00:33:24;11.30;;;6.45;;
31618;SDS011;18230;51.502;7.108;2023-06-22T00:38:25;10.48;;;6.38;;
31618;SDS011;18230;51.502;7.108;2023-06-22T00:43:25;9.93;;;5.82;;
31618;SDS011;18230;51.502;7.108;2023-06-22T00:48:26;8.95;;;6.35;;
31618;SDS011;18230;51.502;7.108;2023-06-22T00:53:27;9.43;;;6.75;;
31618;SDS011;18230;51.502;7.108;2023-06-22T00:58:27;18.92;;;13.05;;
31618;SDS011;18230;51.502;7.108;2023-06-22T01:03:28;16.52;;;9.65;;
31618;SDS011;18230;51.502;7.108;2023-06-22T01:08:51;10.55;;;7.70;;
31618;SDS011;18230;51.502;7.108;2023-06-22T01:14:07;17.60;;;9.40;;
31618;SDS011;18230;51.502;7.108;2023-06-22T01:19:49;11.63;;;8.35;;
31618;SDS011;18230;51.502;7.108;2023-06-22T01:25:00;17.88;;;10.05;;
31618;SDS011;18230;51.502;7.108;2023-06-22T01:30:09;13.93;;;9.13;;
31618;SDS011;18230;51.502;7.108;2023-06-22T01:35:11;17.60;;;9.77;;
31618;SDS011;18230;51.502;7.108;2023-06-22T01:40:13;16.77;;;10.10;;
31618;SDS011;18230;51.502;7.108;2023-06-22T01:45:16;14.27;;;10.30;;
31618;SDS011;18230;51.502;7.108;2023-06-22T01:50:18;24.15;;;11.68;;
31618;SDS011;18230;51.502;7.108;2023-06-22T01:55:19;20.05;;;13.10;;
31618;SDS011;18230;51.502;7.108;2023-06-22T02:00:20;16.05;;;10.73;;
31618;SDS011;18230;51.502;7.108;2023-06-22T02:05:34;17.88;;;11.32;;
31618;SDS011;18230;51.502;7.108;2023-06-22T02:10:38;19.48;;;12.90;;
31618;SDS011;18230;51.502;7.108;2023-06-22T02:15:41;18.88;;;13.68;;
31618;SDS011;18230;51.502;7.108;2023-06-22T02:20:42;14.55;;;10.73;;
31618;SDS011;18230;51.502;7.108;2023-06-22T02:25:43;16.08;;;12.43;;
31618;SDS011;18230;51.502;7.108;2023-06-22T02:30:44;19.00;;;12.93;;
31618;SDS011;18230;51.502;7.108;2023-06-22T02:35:45;16.27;;;12.30;;
31618;SDS011;18230;51.502;7.108;2023-06-22T02:40:49;21.42;;;14.00;;
31618;SDS011;18230;51.502;7.108;2023-06-22T02:45:49;17.00;;;11.52;;
31618;SDS011;18230;51.502;7.108;2023-06-22T02:50:50;17.40;;;13.55;;
31618;SDS011;18230;51.502;7.108;2023-06-22T02:55:51;18.27;;;10.48;;
31618;SDS011;18230;51.502;7.108;2023-06-22T03:00:51;16.40;;;11.35;;
31618;SDS011;18230;51.502;7.108;2023-06-22T03:05:53;16.45;;;10.77;;
31618;SDS011;18230;51.502;7.108;2023-06-22T03:10:53;17.45;;;12.82;;
31618;SDS011;18230;51.502;7.108;2023-06-22T03:15:54;21.90;;;13.85;;
31618;SDS011;18230;51.502;7.108;2023-06-22T03:20:55;17.02;;;12.52;;
31618;SDS011;18230;51.502;7.108;2023-06-22T03:25:56;19.80;;;14.40;;
31618;SDS011;18230;51.502;7.108;2023-06-22T03:30:57;16.98;;;12.52;;
31618;SDS011;18230;51.502;7.108;2023-06-22T03:35:58;20.27;;;14.32;;
31618;SDS011;18230;51.502;7.108;2023-06-22T03:40:59;17.13;;;12.27;;
31618;SDS011;18230;51.502;7.108;2023-06-22T03:46:00;15.77;;;12.55;;
31618;SDS011;18230;51.502;7.108;2023-06-22T03:51:01;21.90;;;15.40;;
31618;SDS011;18230;51.502;7.108;2023-06-22T03:56:04;21.40;;;14.35;;
31618;SDS011;18230;51.502;7.108;2023-06-22T04:01:04;22.63;;;14.52;;
31618;SDS011;18230;51.502;7.108;2023-06-22T04:06:06;17.98;;;14.93;;
31618;SDS011;18230;51.502;7.108;2023-06-22T04:11:07;26.75;;;16.55;;
31618;SDS011;18230;51.502;7.108;2023-06-22T04:16:08;25.20;;;16.45;;
31618;SDS011;18230;51.502;7.108;2023-06-22T04:21:09;22.10;;;16.80;;
31618;SDS011;18230;51.502;7.108;2023-06-22T04:26:10;21.63;;;17.95;;
31618;SDS011;18230;51.502;7.108;2023-06-22T04:31:11;19.50;;;15.38;;
31618;SDS011;18230;51.502;7.108;2023-06-22T04:36:12;25.27;;;17.73;;
31618;SDS011;18230;51.502;7.108;2023-06-22T04:41:13;21.58;;;16.05;;
31618;SDS011;18230;51.502;7.108;2023-06-22T04:46:23;21.17;;;13.50;;
31618;SDS011;18230;51.502;7.108;2023-06-22T04:51:24;20.77;;;13.18;;
31618;SDS011;18230;51.502;7.108;2023-06-22T04:56:30;23.42;;;16.50;;
31618;SDS011;18230;51.502;7.108;2023-06-22T05:01:31;18.60;;;15.90;;
31618;SDS011;18230;51.502;7.108;2023-06-22T05:06:32;26.20;;;16.08;;
31618;SDS011;18230;51.502;7.108;2023-06-22T05:11:33;29.90;;;17.10;;
31618;SDS011;18230;51.502;7.108;2023-06-22T05:16:34;23.17;;;17.20;;
31618;SDS011;18230;51.502;7.108;2023-06-22T05:21:36;25.77;;;17.02;;
31618;SDS011;18230;51.502;7.108;2023-06-22T05:26:37;23.77;;;15.73;;
31618;SDS011;18230;51.502;7.108;2023-06-22T05:31:38;26.73;;;17.23;;
31618;SDS011;18230;51.502;7.108;2023-06-22T05:36:40;25.55;;;17.30;;
31618;SDS011;18230;51.502;7.108;2023-06-22T05:41:40;26.77;;;17.73;;
31618;SDS011;18230;51.502;7.108;2023-06-22T05:46:43;26.17;;;17.48;;
31618;SDS011;18230;51.502;7.108;2023-06-22T05:51:46;27.13;;;18.85;;
31618;SDS011;18230;51.502;7.108;2023-06-22T05:56:47;22.33;;;17.67;;
31618;SDS011;18230;51.502;7.108;2023-06-22T06:01:48;24.52;;;14.60;;
31618;SDS011;18230;51.502;7.108;2023-06-22T06:06:51;25.33;;;18.42;;
31618;SDS011;18230;51.502;7.108;2023-06-22T06:11:52;23.42;;;17.75;;
31618;SDS011;18230;51.502;7.108;2023-06-22T06:16:53;21.83;;;16.83;;
31618;SDS011;18230;51.502;7.108;2023-06-22T06:21:53;22.90;;;15.93;;
31618;SDS011;18230;51.502;7.108;2023-06-22T06:26:54;21.65;;;16.73;;
31618;SDS011;18230;51.502;7.108;2023-06-22T06:31:55;27.77;;;18.00;;
31618;SDS011;18230;51.502;7.108;2023-06-22T06:36:56;23.30;;;15.93;;
31618;SDS011;18230;51.502;7.108;2023-06-22T06:41:57;20.13;;;15.10;;
31618;SDS011;18230;51.502;7.108;2023-06-22T06:46:58;27.67;;;16.45;;
31618;SDS011;18230;51.502;7.108;2023-06-22T06:51:59;23.63;;;15.38;;
31618;SDS011;18230;51.502;7.108;2023-06-22T06:56:59;21.58;;;16.75;;
31618;SDS011;18230;51.502;7.108;2023-06-22T07:02:03;27.48;;;16.88;;
31618;SDS011;18230;51.502;7.108;2023-06-22T07:07:04;22.88;;;16.90;;
31618;SDS011;18230;51.502;7.108;2023-06-22T07:12:05;21.30;;;16.50;;
31618;SDS011;18230;51.502;7.108;2023-06-22T07:17:06;27.08;;;18.02;;
31618;SDS011;18230;51.502;7.108;2023-06-22T07:22:07;27.23;;;19.02;;
31618;SDS011;18230;51.502;7.108;2023-06-22T07:27:08;23.85;;;17.48;;
31618;SDS011;18230;51.502;7.108;2023-06-22T07:32:11;32.08;;;17.65;;
31618;SDS011;18230;51.502;7.108;2023-06-22T07:37:12;25.30;;;17.60;;
31618;SDS011;18230;51.502;7.108;2023-06-22T07:42:13;25.15;;;16.15;;
31618;SDS011;18230;51.502;7.108;2023-06-22T07:47:18;22.73;;;15.52;;
31618;SDS011;18230;51.502;7.108;2023-06-22T07:52:19;29.15;;;15.15;;
31618;SDS011;18230;51.502;7.108;2023-06-22T07:57:21;29.38;;;16.88;;
31618;SDS011;18230;51.502;7.108;2023-06-22T08:02:22;21.70;;;16.10;;
31618;SDS011;18230;51.502;7.108;2023-06-22T08:07:22;19.85;;;13.65;;
31618;SDS011;18230;51.502;7.108;2023-06-22T08:12:23;23.90;;;16.92;;
31618;SDS011;18230;51.502;7.108;2023-06-22T08:17:24;22.10;;;15.77;;
31618;SDS011;18230;51.502;7.108;2023-06-22T08:22:25;20.08;;;13.63;;
31618;SDS011;18230;51.502;7.108;2023-06-22T08:27:26;23.05;;;15.80;;
31618;SDS011;18230;51.502;7.108;2023-06-22T08:32:28;26.10;;;15.93;;
31618;SDS011;18230;51.502;7.108;2023-06-22T08:37:29;23.85;;;17.58;;
31618;SDS011;18230;51.502;7.108;2023-06-22T08:42:40;24.23;;;19.80;;
31618;SDS011;18230;51.502;7.108;2023-06-22T08:47:41;27.23;;;17.65;;
31618;SDS011;18230;51.502;7.108;2023-06-22T08:52:42;29.23;;;19.33;;
31618;SDS011;18230;51.502;7.108;2023-06-22T08:57:52;27.08;;;21.73;;
31618;SDS011;18230;51.502;7.108;2023-06-22T09:02:52;29.40;;;21.33;;
31618;SDS011;18230;51.502;7.108;2023-06-22T09:07:53;31.83;;;19.65;;
31618;SDS011;18230;51.502;7.108;2023-06-22T09:12:56;31.52;;;21.10;;
31618;SDS011;18230;51.502;7.108;2023-06-22T09:17:57;26.67;;;20.60;;
31618;SDS011;18230;51.502;7.108;2023-06-22T09:22:58;27.33;;;17.67;;
31618;SDS011;18230;51.502;7.108;2023-06-22T09:27:59;22.52;;;17.80;;
31618;SDS011;18230;51.502;7.108;2023-06-22T09:33:00;23.83;;;17.95;;
31618;SDS011;18230;51.502;7.108;2023-06-22T09:38:01;38.03;;;20.50;;
31618;SDS011;18230;51.502;7.108;2023-06-22T09:43:01;26.65;;;18.35;;
31618;SDS011;18230;51.502;7.108;2023-06-22T09:48:02;23.20;;;18.83;;
31618;SDS011;18230;51.502;7.108;2023-06-22T09:53:03;29.67;;;22.13;;
31618;SDS011;18230;51.502;7.108;2023-06-22T09:58:04;24.10;;;20.08;;
31618;SDS011;18230;51.502;7.108;2023-06-22T10:03:05;21.98;;;18.00;;
31618;SDS011;18230;51.502;7.108;2023-06-22T10:08:06;27.50;;;19.02;;
31618;SDS011;18230;51.502;7.108;2023-06-22T10:13:09;22.27;;;18.67;;
31618;SDS011;18230;51.502;7.108;2023-06-22T10:18:10;21.85;;;15.77;;
31618;SDS011;18230;51.502;7.108;2023-06-22T10:23:11;23.77;;;17.08;;
31618;SDS011;18230;51.502;7.108;2023-06-22T10:28:12;27.17;;;17.08;;
31618;SDS011;18230;51.502;7.108;2023-06-22T10:33:13;21.70;;;17.70;;
31618;SDS011;18230;51.502;7.108;2023-06-22T10:38:14;21.90;;;16.17;;
31618;SDS011;18230;51.502;7.108;2023-06-22T10:43:17;17.17;;;15.35;;
31618;SDS011;18230;51.502;7.108;2023-06-22T10:48:18;22.00;;;17.52;;
31618;SDS011;18230;51.502;7.108;2023-06-22T10:53:19;26.02;;;18.98;;
31618;SDS011;18230;51.502;7.108;2023-06-22T10:58:20;23.27;;;17.20;;
31618;SDS011;18230;51.502;7.108;2023-06-22T11:03:22;26.55;;;16.73;;
31618;SDS011;18230;51.502;7.108;2023-06-22T11:08:27;24.17;;;17.63;;
31618;SDS011;18230;51.502;7.108;2023-06-22T11:19:16;21.60;;;16.92;;
31618;SDS011;18230;51.502;7.108;2023-06-22T11:24:17;48.75;;;40.50;;
31618;SDS011;18230;51.502;7.108;2023-06-22T11:29:18;34.00;;;23.15;;
31618;SDS011;18230;51.502;7.108;2023-06-22T11:34:21;25.27;;;18.20;;
31618;SDS011;18230;51.502;7.108;2023-06-22T11:39:22;21.60;;;18.73;;
31618;SDS011;18230;51.502;7.108;2023-06-22T11:44:22;33.40;;;23.20;;
31618;SDS011;18230;51.502;7.108;2023-06-22T11:49:23;26.60;;;21.52;;
31618;SDS011;18230;51.502;7.108;2023-06-22T11:54:24;29.48;;;22.30;;
31618;SDS011;18230;51.502;7.108;2023-06-22T11:59:24;26.65;;;21.50;;
31618;SDS011;18230;51.502;7.108;2023-06-22T12:04:25;30.90;;;22.95;;
31618;SDS011;18230;51.502;7.108;2023-06-22T12:09:26;40.38;;;28.45;;
31618;SDS011;18230;51.502;7.108;2023-06-22T12:14:26;41.38;;;28.90;;
31618;SDS011;18230;51.502;7.108;2023-06-22T12:19:27;37.03;;;29.05;;
31618;SDS011;18230;51.502;7.108;2023-06-22T12:24:28;40.85;;;30.77;;
31618;SDS011;18230;51.502;7.108;2023-06-22T12:29:29;44.03;;;32.28;;
31618;SDS011;18230;51.502;7.108;2023-06-22T12:34:29;41.33;;;33.05;;
31618;SDS011;18230;51.502;7.108;2023-06-22T12:39:30;47.08;;;36.45;;
31618;SDS011;18230;51.502;7.108;2023-06-22T12:44:31;40.65;;;34.15;;
31618;SDS011;18230;51.502;7.108;2023-06-22T12:49:32;46.72;;;36.30;;
31618;SDS011;18230;51.502;7.108;2023-06-22T12:54:32;44.40;;;34.85;;
31618;SDS011;18230;51.502;7.108;2023-06-22T12:59:33;41.00;;;34.33;;
31618;SDS011;18230;51.502;7.108;2023-06-22T13:04:34;44.25;;;35.40;;
31618;SDS011;18230;51.502;7.108;2023-06-22T13:09:35;42.70;;;35.05;;
31618;SDS011;18230;51.502;7.108;2023-06-22T13:14:36;46.15;;;34.50;;
31618;SDS011;18230;51.502;7.108;2023-06-22T13:19:37;46.00;;;35.47;;
31618;SDS011;18230;51.502;7.108;2023-06-22T13:24:38;42.22;;;35.75;;
31618;SDS011;18230;51.502;7.108;2023-06-22T13:29:38;39.75;;;34.42;;
31618;SDS011;18230;51.502;7.108;2023-06-22T13:34:39;34.85;;;31.05;;
31618;SDS011;18230;51.502;7.108;2023-06-22T13:39:40;44.70;;;32.92;;
31618;SDS011;18230;51.502;7.108;2023-06-22T13:44:41;36.50;;;28.70;;
31618;SDS011;18230;51.502;7.108;2023-06-22T13:49:42;30.30;;;26.30;;
31618;SDS011;18230;51.502;7.108;2023-06-22T13:54:42;33.58;;;26.75;;
31618;SDS011;18230;51.502;7.108;2023-06-22T13:59:43;36.45;;;28.40;;
31618;SDS011;18230;51.502;7.108;2023-06-22T14:04:44;34.20;;;28.58;;
31618;SDS011;18230;51.502;7.108;2023-06-22T14:09:44;30.75;;;25.25;;
31618;SDS011;18230;51.502;7.108;2023-06-22T14:14:45;22.75;;;19.88;;
31618;SDS011;18230;51.502;7.108;2023-06-22T14:19:46;20.35;;;18.20;;
31618;SDS011;18230;51.502;7.108;2023-06-22T14:24:47;25.30;;;19.67;;
31618;SDS011;18230;51.502;7.108;2023-06-22T14:29:48;22.30;;;16.92;;
31618;SDS011;18230;51.502;7.108;2023-06-22T14:34:49;19.25;;;16.58;;
31618;SDS011;18230;51.502;7.108;2023-06-22T14:39:50;18.80;;;15.00;;
31618;SDS011;18230;51.502;7.108;2023-06-22T14:44:50;19.65;;;16.40;;
31618;SDS011;18230;51.502;7.108;2023-06-22T14:49:51;17.45;;;14.98;;
31618;SDS011;18230;51.502;7.108;2023-06-22T14:54:52;17.88;;;15.98;;
31618;SDS011;18230;51.502;7.108;2023-06-22T14:59:52;18.23;;;15.43;;
31618;SDS011;18230;51.502;7.108;2023-06-22T15:04:54;23.30;;;17.25;;
31618;SDS011;18230;51.502;7.108;2023-06-22T15:09:55;29.25;;;21.00;;
31618;SDS011;18230;51.502;7.108;2023-06-22T15:14:55;30.42;;;22.88;;
31618;SDS011;18230;51.502;7.108;2023-06-22T15:19:57;29.08;;;24.60;;
31618;SDS011;18230;51.502;7.108;2023-06-22T15:24:58;31.23;;;24.75;;
31618;SDS011;18230;51.502;7.108;2023-06-22T15:29:59;27.02;;;24.13;;
31618;SDS011;18230;51.502;7.108;2023-06-22T15:34:59;30.52;;;24.67;;
31618;SDS011;18230;51.502;7.108;2023-06-22T15:40:00;27.67;;;22.83;;
31618;SDS011;18230;51.502;7.108;2023-06-22T15:45:01;29.55;;;22.75;;
31618;SDS011;18230;51.502;7.108;2023-06-22T15:50:03;27.88;;;21.48;;
31618;SDS011;18230;51.502;7.108;2023-06-22T15:55:04;30.70;;;21.13;;
31618;SDS011;18230;51.502;7.108;2023-06-22T16:00:05;34.47;;;23.15;;
31618;SDS011;18230;51.502;7.108;2023-06-22T16:05:07;32.25;;;25.27;;
31618;SDS011;18230;51.502;7.108;2023-06-22T16:10:09;31.25;;;22.77;;
31618;SDS011;18230;51.502;7.108;2023-06-22T16:15:10;31.40;;;21.42;;
31618;SDS011;18230;51.502;7.108;2023-06-22T16:20:11;25.08;;;18.17;;
31618;SDS011;18230;51.502;7.108;2023-06-22T16:25:12;24.13;;;17.20;;
31618;SDS011;18230;51.502;7.108;2023-06-22T16:30:13;25.67;;;17.25;;
31618;SDS011;18230;51.502;7.108;2023-06-22T16:35:21;22.33;;;17.00;;
31618;SDS011;18230;51.502;7.108;2023-06-22T16:40:22;21.50;;;17.67;;
31618;SDS011;18230;51.502;7.108;2023-06-22T16:45:23;24.35;;;18.73;;
31618;SDS011;18230;51.502;7.108;2023-06-22T16:50:24;20.75;;;16.70;;
31618;SDS011;18230;51.502;7.108;2023-06-22T16:55:26;23.13;;;17.30;;
31618;SDS011;18230;51.502;7.108;2023-06-22T17:00:30;21.02;;;17.17;;
31618;SDS011;18230;51.502;7.108;2023-06-22T17:05:33;21.40;;;16.85;;
31618;SDS011;18230;51.502;7.108;2023-06-22T17:10:35;24.98;;;17.67;;
31618;SDS011;18230;51.502;7.108;2023-06-22T17:15:36;24.23;;;17.80;;
31618;SDS011;18230;51.502;7.108;2023-06-22T17:20:49;23.50;;;17.80;;
31618;SDS011;18230;51.502;7.108;2023-06-22T17:25:51;29.58;;;18.05;;
31618;SDS011;18230;51.502;7.108;2023-06-22T17:31:07;22.50;;;18.70;;
31618;SDS011;18230;51.502;7.108;2023-06-22T17:36:12;26.88;;;18.35;;
31618;SDS011;18230;51.502;7.108;2023-06-22T17:41:17;29.52;;;19.95;;
31618;SDS011;18230;51.502;7.108;2023-06-22T17:46:17;28.33;;;20.95;;
31618;SDS011;18230;51.502;7.108;2023-06-22T17:51:20;26.95;;;19.75;;
31618;SDS011;18230;51.502;7.108;2023-06-22T17:56:24;24.53;;;20.60;;
31618;SDS011;18230;51.502;7.108;2023-06-22T18:06:35;28.08;;;20.10;;
31618;SDS011;18230;51.502;7.108;2023-06-22T18:11:46;26.23;;;22.33;;
31618;SDS011;18230;51.502;7.108;2023-06-22T18:16:49;25.95;;;22.75;;
31618;SDS011;18230;51.502;7.108;2023-06-22T18:21:50;28.88;;;23.00;;
31618;SDS011;18230;51.502;7.108;2023-06-22T18:26:52;35.60;;;26.60;;
31618;SDS011;18230;51.502;7.108;2023-06-22T18:31:55;35.10;;;23.67;;
31618;SDS011;18230;51.502;7.108;2023-06-22T18:36:56;27.70;;;22.20;;
31618;SDS011;18230;51.502;7.108;2023-06-22T18:41:59;29.63;;;22.67;;
31618;SDS011;18230;51.502;7.108;2023-06-22T18:47:03;25.05;;;21.55;;
31618;SDS011;18230;51.502;7.108;2023-06-22T18:52:05;27.65;;;22.92;;
31618;SDS011;18230;51.502;7.108;2023-06-22T18:57:17;29.63;;;21.75;;
31618;SDS011;18230;51.502;7.108;2023-06-22T19:12:53;30.63;;;23.70;;
31618;SDS011;18230;51.502;7.108;2023-06-22T19:17:59;29.20;;;24.08;;
31618;SDS011;18230;51.502;7.108;2023-06-22T19:23:02;30.92;;;24.73;;
31618;SDS011;18230;51.502;7.108;2023-06-22T19:28:04;28.52;;;22.77;;
31618;SDS011;18230;51.502;7.108;2023-06-22T19:33:11;30.58;;;24.33;;
31618;SDS011;18230;51.502;7.108;2023-06-22T19:38:15;30.27;;;23.58;;
31618;SDS011;18230;51.502;7.108;2023-06-22T19:43:17;30.58;;;24.15;;
31618;SDS011;18230;51.502;7.108;2023-06-22T19:48:18;27.05;;;22.58;;
31618;SDS011;18230;51.502;7.108;2023-06-22T19:53:18;29.27;;;23.23;;
31618;SDS011;18230;51.502;7.108;2023-06-22T19:58:19;27.67;;;23.00;;
31618;SDS011;18230;51.502;7.108;2023-06-22T20:08:28;13.15;;;5.03;;
31618;SDS011;18230;51.502;7.108;2023-06-22T20:13:49;5.03;;;3.28;;
31618;SDS011;18230;51.502;7.108;2023-06-22T20:19:07;8.57;;;3.05;;
31618;SDS011;18230;51.502;7.108;2023-06-22T20:24:12;6.63;;;4.90;;
31618;SDS011;18230;51.502;7.108;2023-06-22T20:34:39;10.15;;;7.90;;
31618;SDS011;18230;51.502;7.108;2023-06-22T20:39:43;11.40;;;9.55;;
31618;SDS011;18230;51.502;7.108;2023-06-22T20:44:44;11.25;;;9.73;;
31618;SDS011;18230;51.502;7.108;2023-06-22T20:49:49;10.25;;;8.52;;
31618;SDS011;18230;51.502;7.108;2023-06-22T20:54:50;6.60;;;5.18;;
31618;SDS011;18230;51.502;7.108;2023-06-22T20:59:52;9.32;;;6.07;;
31618;SDS011;18230;51.502;7.108;2023-06-22T21:04:53;22.50;;;6.55;;
31618;SDS011;18230;51.502;7.108;2023-06-22T21:09:54;16.60;;;8.35;;
31618;SDS011;18230;51.502;7.108;2023-06-22T21:14:55;19.35;;;11.68;;
31618;SDS011;18230;51.502;7.108;2023-06-22T21:19:56;14.30;;;10.15;;
31618;SDS011;18230;51.502;7.108;2023-06-22T21:25:06;11.77;;;9.50;;
31618;SDS011;18230;51.502;7.108;2023-06-22T21:30:17;16.60;;;11.90;;
31618;SDS011;18230;51.502;7.108;2023-06-22T21:35:18;14.00;;;10.70;;
31618;SDS011;18230;51.502;7.108;2023-06-22T21:40:19;14.25;;;10.82;;
31618;SDS011;18230;51.502;7.108;2023-06-22T21:45:20;13.18;;;9.32;;
31618;SDS011;18230;51.502;7.108;2023-06-22T21:50:20;10.40;;;7.53;;
31618;SDS011;18230;51.502;7.108;2023-06-22T21:55:21;9.50;;;7.43;;
31618;SDS011;18230;51.502;7.108;2023-06-22T22:00:22;11.63;;;8.23;;
31618;SDS011;18230;51.502;7.108;2023-06-22T22:05:22;11.48;;;8.85;;
31618;SDS011;18230;51.502;7.108;2023-06-22T22:10:23;10.25;;;7.97;;
31618;SDS011;18230;51.502;7.108;2023-06-22T22:15:24;11.43;;;8.98;;
31618;SDS011;18230;51.502;7.108;2023-06-22T22:20:25;10.48;;;8.68;;
31618;SDS011;18230;51.502;7.108;2023-06-22T22:25:25;12.25;;;9.30;;
31618;SDS011;18230;51.502;7.108;2023-06-22T22:30:26;12.32;;;9.85;;
31618;SDS011;18230;51.502;7.108;2023-06-22T22:35:27;13.32;;;11.07;;
31618;SDS011;18230;51.502;7.108;2023-06-22T22:40:28;13.55;;;10.38;;
31618;SDS011;18230;51.502;7.108;2023-06-22T22:45:28;13.80;;;10.32;;
31618;SDS011;18230;51.502;7.108;2023-06-22T22:50:29;12.95;;;10.63;;
31618;SDS011;18230;51.502;7.108;2023-06-22T22:55:32;14.05;;;10.77;;
31618;SDS011;18230;51.502;7.108;2023-06-22T23:00:32;16.65;;;13.07;;
31618;SDS011;18230;51.502;7.108;2023-06-22T23:05:33;18.83;;;14.88;;
31618;SDS011;18230;51.502;7.108;2023-06-22T23:10:34;18.73;;;14.52;;
31618;SDS011;18230;51.502;7.108;2023-06-22T23:15:37;17.80;;;13.10;;
31618;SDS011;18230;51.502;7.108;2023-06-22T23:20:38;13.43;;;11.20;;
31618;SDS011;18230;51.502;7.108;2023-06-22T23:25:38;17.95;;;12.77;;
31618;SDS011;18230;51.502;7.108;2023-06-22T23:30:39;17.02;;;11.85;;
31618;SDS011;18230;51.502;7.108;2023-06-22T23:35:40;12.05;;;10.30;;
31618;SDS011;18230;51.502;7.108;2023-06-22T23:40:40;12.93;;;10.77;;
31618;SDS011;18230;51.502;7.108;2023-06-22T23:45:41;13.93;;;11.40;;
31618;SDS011;18230;51.502;7.108;2023-06-22T23:50:41;13.60;;;10.80;;
31618;SDS011;18230;51.502;7.108;2023-06-22T23:55:42;14.90;;;11.40;;
